sensor_id;sensor_type;location;lat;lon;timestamp;pressure;altitude;pressure_sealevel;temperature;humidity
75401;BME280;63974;47.538;18.972;2024-02-26T00:00:25;99458.38;;;9.11;100.00
75401;BME280;63974;47.538;18.972;2024-02-26T00:03:27;99457.31;;;9.05;100.00
75401;BME280;63974;47.538;18.972;2024-02-26T00:06:31;99464.97;;;8.99;100.00
75401;BME280;63974;47.538;18.972;2024-02-26T00:09:34;99458.03;;;8.99;100.00
75401;BME280;63974;47.538;18.972;2024-02-26T00:12:39;99461.31;;;9.08;100.00
75401;BME280;63974;47.538;18.972;2024-02-26T00:15:42;99464.19;;;9.13;100.00
75401;BME280;63974;47.538;18.972;2024-02-26T00:18:45;99452.78;;;9.07;100.00
75401;BME280;63974;47.538;18.972;2024-02-26T00:21:51;99452.84;;;8.85;100.00
75401;BME280;63974;47.538;18.972;2024-02-26T00:24:56;99453.81;;;8.84;100.00
75401;BME280;63974;47.538;18.972;2024-02-26T00:27:58;99451.13;;;8.63;100.00
75401;BME280;63974;47.538;18.972;2024-02-26T00:31:01;99446.13;;;8.62;100.00
75401;BME280;63974;47.538;18.972;2024-02-26T00:34:04;99443.91;;;8.59;100.00
75401;BME280;63974;47.538;18.972;2024-02-26T00:37:07;99446.50;;;8.59;100.00
75401;BME280;63974;47.538;18.972;2024-02-26T00:40:10;99447.91;;;8.61;100.00
75401;BME280;63974;47.538;18.972;2024-02-26T00:43:13;99437.13;;;8.72;100.00
75401;BME280;63974;47.538;18.972;2024-02-26T00:46:16;99436.00;;;8.89;100.00
75401;BME280;63974;47.538;18.972;2024-02-26T00:49:18;99438.38;;;9.05;100.00
75401;BME280;63974;47.538;18.972;2024-02-26T00:52:21;99438.03;;;8.79;100.00
75401;BME280;63974;47.538;18.972;2024-02-26T00:55:24;99439.63;;;8.80;100.00
75401;BME280;63974;47.538;18.972;2024-02-26T00:58:27;99437.22;;;8.64;100.00
75401;BME280;63974;47.538;18.972;2024-02-26T01:01:29;99434.50;;;8.43;100.00
75401;BME280;63974;47.538;18.972;2024-02-26T01:04:32;99443.47;;;8.33;100.00
75401;BME280;63974;47.538;18.972;2024-02-26T01:07:36;99427.09;;;8.55;100.00
75401;BME280;63974;47.538;18.972;2024-02-26T01:10:39;99427.75;;;8.71;100.00
75401;BME280;63974;47.538;18.972;2024-02-26T01:13:42;99420.91;;;8.78;100.00
75401;BME280;63974;47.538;18.972;2024-02-26T01:16:45;99427.94;;;8.84;100.00
75401;BME280;63974;47.538;18.972;2024-02-26T01:19:48;99431.44;;;8.91;100.00
75401;BME280;63974;47.538;18.972;2024-02-26T01:22:50;99414.53;;;8.95;100.00
75401;BME280;63974;47.538;18.972;2024-02-26T01:25:53;99417.84;;;9.03;100.00
75401;BME280;63974;47.538;18.972;2024-02-26T01:28:56;99417.06;;;9.03;100.00
75401;BME280;63974;47.538;18.972;2024-02-26T01:31:58;99410.88;;;9.04;100.00
75401;BME280;63974;47.538;18.972;2024-02-26T01:35:01;99409.75;;;8.92;100.00
75401;BME280;63974;47.538;18.972;2024-02-26T01:38:05;99404.72;;;8.90;100.00
75401;BME280;63974;47.538;18.972;2024-02-26T01:41:08;99406.06;;;9.01;100.00
75401;BME280;63974;47.538;18.972;2024-02-26T01:44:14;99400.25;;;8.99;100.00
75401;BME280;63974;47.538;18.972;2024-02-26T01:47:16;99403.38;;;9.09;100.00
75401;BME280;63974;47.538;18.972;2024-02-26T01:50:20;99399.72;;;9.03;100.00
75401;BME280;63974;47.538;18.972;2024-02-26T01:53:24;99400.16;;;9.07;100.00
75401;BME280;63974;47.538;18.972;2024-02-26T01:56:28;99401.25;;;8.69;100.00
75401;BME280;63974;47.538;18.972;2024-02-26T01:59:33;99391.53;;;8.71;100.00
75401;BME280;63974;47.538;18.972;2024-02-26T02:02:37;99392.78;;;8.61;100.00
75401;BME280;63974;47.538;18.972;2024-02-26T02:05:41;99385.81;;;8.61;100.00
75401;BME280;63974;47.538;18.972;2024-02-26T02:08:46;99387.78;;;8.59;100.00
75401;BME280;63974;47.538;18.972;2024-02-26T02:11:49;99385.19;;;8.59;100.00
75401;BME280;63974;47.538;18.972;2024-02-26T02:14:52;99384.72;;;8.56;100.00
75401;BME280;63974;47.538;18.972;2024-02-26T02:17:55;99384.41;;;8.59;100.00
75401;BME280;63974;47.538;18.972;2024-02-26T02:21:00;99377.88;;;8.63;100.00
75401;BME280;63974;47.538;18.972;2024-02-26T02:24:03;99366.38;;;8.65;100.00
75401;BME280;63974;47.538;18.972;2024-02-26T02:27:06;99373.06;;;8.60;100.00
75401;BME280;63974;47.538;18.972;2024-02-26T02:30:09;99371.47;;;8.59;100.00
75401;BME280;63974;47.538;18.972;2024-02-26T02:33:13;99368.88;;;8.59;100.00
75401;BME280;63974;47.538;18.972;2024-02-26T02:36:17;99365.84;;;8.55;100.00
75401;BME280;63974;47.538;18.972;2024-02-26T02:39:21;99367.38;;;8.64;100.00
75401;BME280;63974;47.538;18.972;2024-02-26T02:42:24;99366.63;;;8.70;100.00
75401;BME280;63974;47.538;18.972;2024-02-26T02:45:28;99373.69;;;8.76;100.00
75401;BME280;63974;47.538;18.972;2024-02-26T02:48:31;99378.50;;;8.79;100.00
75401;BME280;63974;47.538;18.972;2024-02-26T02:51:33;99380.63;;;8.76;100.00
75401;BME280;63974;47.538;18.972;2024-02-26T02:54:36;99378.22;;;8.74;100.00
75401;BME280;63974;47.538;18.972;2024-02-26T02:57:42;99378.34;;;8.66;100.00
75401;BME280;63974;47.538;18.972;2024-02-26T03:00:46;99374.31;;;8.64;100.00
75401;BME280;63974;47.538;18.972;2024-02-26T03:03:49;99369.13;;;8.64;100.00
75401;BME280;63974;47.538;18.972;2024-02-26T03:06:52;99375.22;;;8.71;100.00
75401;BME280;63974;47.538;18.972;2024-02-26T03:09:54;99371.91;;;8.77;100.00
75401;BME280;63974;47.538;18.972;2024-02-26T03:12:57;99371.44;;;8.73;100.00
75401;BME280;63974;47.538;18.972;2024-02-26T03:16:04;99371.28;;;8.75;100.00
75401;BME280;63974;47.538;18.972;2024-02-26T03:19:08;99375.91;;;8.79;100.00
75401;BME280;63974;47.538;18.972;2024-02-26T03:22:11;99387.16;;;8.72;100.00
75401;BME280;63974;47.538;18.972;2024-02-26T03:25:14;99383.06;;;8.63;100.00
75401;BME280;63974;47.538;18.972;2024-02-26T03:28:17;99383.81;;;8.34;100.00
75401;BME280;63974;47.538;18.972;2024-02-26T03:31:19;99373.78;;;8.17;100.00
75401;BME280;63974;47.538;18.972;2024-02-26T03:34:24;99368.59;;;8.17;100.00
75401;BME280;63974;47.538;18.972;2024-02-26T03:37:28;99382.84;;;8.35;100.00
75401;BME280;63974;47.538;18.972;2024-02-26T03:40:31;99386.16;;;8.44;100.00
75401;BME280;63974;47.538;18.972;2024-02-26T03:43:34;99379.66;;;8.48;100.00
75401;BME280;63974;47.538;18.972;2024-02-26T03:46:37;99371.97;;;8.40;100.00
75401;BME280;63974;47.538;18.972;2024-02-26T03:49:40;99371.72;;;8.35;100.00
75401;BME280;63974;47.538;18.972;2024-02-26T03:52:42;99374.63;;;8.32;100.00
75401;BME280;63974;47.538;18.972;2024-02-26T03:55:45;99378.56;;;8.28;100.00
75401;BME280;63974;47.538;18.972;2024-02-26T03:58:48;99378.91;;;8.25;100.00
75401;BME280;63974;47.538;18.972;2024-02-26T04:01:51;99386.56;;;8.18;100.00
75401;BME280;63974;47.538;18.972;2024-02-26T04:04:53;99393.47;;;8.03;100.00
75401;BME280;63974;47.538;18.972;2024-02-26T04:07:56;99382.06;;;8.12;100.00
75401;BME280;63974;47.538;18.972;2024-02-26T04:10:59;99384.78;;;7.96;100.00
75401;BME280;63974;47.538;18.972;2024-02-26T04:14:01;99376.00;;;8.05;100.00
75401;BME280;63974;47.538;18.972;2024-02-26T04:17:05;99376.63;;;8.07;100.00
75401;BME280;63974;47.538;18.972;2024-02-26T04:20:12;99383.19;;;7.95;100.00
75401;BME280;63974;47.538;18.972;2024-02-26T04:23:15;99386.78;;;7.86;100.00
75401;BME280;63974;47.538;18.972;2024-02-26T04:26:18;99389.28;;;7.80;100.00
75401;BME280;63974;47.538;18.972;2024-02-26T04:29:20;99388.13;;;7.82;100.00
75401;BME280;63974;47.538;18.972;2024-02-26T04:32:23;99387.66;;;7.79;100.00
75401;BME280;63974;47.538;18.972;2024-02-26T04:35:26;99386.22;;;7.99;100.00
75401;BME280;63974;47.538;18.972;2024-02-26T04:38:28;99377.91;;;7.89;100.00
75401;BME280;63974;47.538;18.972;2024-02-26T04:41:31;99367.78;;;8.02;100.00
75401;BME280;63974;47.538;18.972;2024-02-26T04:44:34;99377.56;;;7.92;100.00
75401;BME280;63974;47.538;18.972;2024-02-26T04:47:36;99374.59;;;7.80;100.00
75401;BME280;63974;47.538;18.972;2024-02-26T04:50:39;99368.75;;;7.78;100.00
75401;BME280;63974;47.538;18.972;2024-02-26T04:53:42;99373.09;;;7.86;100.00
75401;BME280;63974;47.538;18.972;2024-02-26T04:56:44;99366.69;;;7.96;100.00
75401;BME280;63974;47.538;18.972;2024-02-26T04:59:47;99366.97;;;8.01;100.00
75401;BME280;63974;47.538;18.972;2024-02-26T05:02:52;99352.94;;;7.96;100.00
75401;BME280;63974;47.538;18.972;2024-02-26T05:05:55;99359.28;;;7.93;100.00
75401;BME280;63974;47.538;18.972;2024-02-26T05:09:00;99362.41;;;7.89;100.00
75401;BME280;63974;47.538;18.972;2024-02-26T05:12:03;99373.19;;;7.92;100.00
75401;BME280;63974;47.538;18.972;2024-02-26T05:15:06;99362.16;;;7.98;100.00
75401;BME280;63974;47.538;18.972;2024-02-26T05:18:09;99371.41;;;7.93;100.00
75401;BME280;63974;47.538;18.972;2024-02-26T05:21:12;99361.34;;;7.61;100.00
75401;BME280;63974;47.538;18.972;2024-02-26T05:24:14;99368.13;;;7.76;100.00
75401;BME280;63974;47.538;18.972;2024-02-26T05:27:20;99367.72;;;7.87;100.00
75401;BME280;63974;47.538;18.972;2024-02-26T05:30:22;99371.81;;;7.82;100.00
75401;BME280;63974;47.538;18.972;2024-02-26T05:33:25;99378.19;;;7.94;100.00
75401;BME280;63974;47.538;18.972;2024-02-26T05:36:28;99378.19;;;7.94;100.00
75401;BME280;63974;47.538;18.972;2024-02-26T05:39:35;99382.09;;;7.90;100.00
75401;BME280;63974;47.538;18.972;2024-02-26T05:42:38;99375.59;;;7.94;100.00
75401;BME280;63974;47.538;18.972;2024-02-26T05:45:41;99378.63;;;7.97;100.00
75401;BME280;63974;47.538;18.972;2024-02-26T05:48:48;99389.00;;;7.75;100.00
75401;BME280;63974;47.538;18.972;2024-02-26T05:51:51;99391.88;;;7.57;100.00
75401;BME280;63974;47.538;18.972;2024-02-26T05:54:54;99371.84;;;7.29;100.00
75401;BME280;63974;47.538;18.972;2024-02-26T05:57:57;99394.09;;;7.60;100.00
75401;BME280;63974;47.538;18.972;2024-02-26T06:00:59;99394.91;;;7.83;100.00
75401;BME280;63974;47.538;18.972;2024-02-26T06:04:03;99396.25;;;7.94;100.00
75401;BME280;63974;47.538;18.972;2024-02-26T06:07:06;99389.03;;;7.89;100.00
75401;BME280;63974;47.538;18.972;2024-02-26T06:10:09;99401.31;;;8.10;100.00
75401;BME280;63974;47.538;18.972;2024-02-26T06:13:12;99407.13;;;8.12;100.00
75401;BME280;63974;47.538;18.972;2024-02-26T06:16:15;99394.13;;;8.20;100.00
75401;BME280;63974;47.538;18.972;2024-02-26T06:19:18;99392.38;;;8.20;100.00
75401;BME280;63974;47.538;18.972;2024-02-26T06:22:20;99391.50;;;8.28;100.00
75401;BME280;63974;47.538;18.972;2024-02-26T06:25:23;99395.78;;;8.35;100.00
75401;BME280;63974;47.538;18.972;2024-02-26T06:28:29;99402.69;;;8.57;100.00
75401;BME280;63974;47.538;18.972;2024-02-26T06:31:34;99408.47;;;8.59;100.00
75401;BME280;63974;47.538;18.972;2024-02-26T06:34:37;99402.03;;;8.41;100.00
75401;BME280;63974;47.538;18.972;2024-02-26T06:37:42;99408.91;;;8.48;100.00
75401;BME280;63974;47.538;18.972;2024-02-26T06:40:46;99407.13;;;8.49;100.00
75401;BME280;63974;47.538;18.972;2024-02-26T06:43:50;99398.38;;;8.35;100.00
75401;BME280;63974;47.538;18.972;2024-02-26T06:47:01;99404.63;;;8.41;100.00
75401;BME280;63974;47.538;18.972;2024-02-26T06:50:04;99409.56;;;8.65;100.00
75401;BME280;63974;47.538;18.972;2024-02-26T06:53:07;99413.56;;;8.81;100.00
75401;BME280;63974;47.538;18.972;2024-02-26T06:56:12;99411.25;;;8.86;100.00
75401;BME280;63974;47.538;18.972;2024-02-26T06:59:15;99419.72;;;9.09;100.00
75401;BME280;63974;47.538;18.972;2024-02-26T07:02:17;99427.22;;;9.04;100.00
75401;BME280;63974;47.538;18.972;2024-02-26T07:05:20;99420.53;;;8.95;100.00
75401;BME280;63974;47.538;18.972;2024-02-26T07:08:25;99425.81;;;9.02;100.00
75401;BME280;63974;47.538;18.972;2024-02-26T07:11:28;99429.41;;;9.36;100.00
75401;BME280;63974;47.538;18.972;2024-02-26T07:14:30;99435.00;;;9.54;100.00
75401;BME280;63974;47.538;18.972;2024-02-26T07:17:35;99438.28;;;9.84;100.00
75401;BME280;63974;47.538;18.972;2024-02-26T07:20:39;99427.69;;;9.79;100.00
75401;BME280;63974;47.538;18.972;2024-02-26T07:23:42;99435.16;;;9.88;100.00
75401;BME280;63974;47.538;18.972;2024-02-26T07:26:45;99442.16;;;10.09;100.00
75401;BME280;63974;47.538;18.972;2024-02-26T07:29:48;99438.06;;;10.21;100.00
75401;BME280;63974;47.538;18.972;2024-02-26T07:32:51;99429.88;;;10.45;100.00
75401;BME280;63974;47.538;18.972;2024-02-26T07:35:54;99422.41;;;10.56;100.00
75401;BME280;63974;47.538;18.972;2024-02-26T07:38:56;99435.28;;;10.71;100.00
75401;BME280;63974;47.538;18.972;2024-02-26T07:41:59;99442.72;;;10.80;100.00
75401;BME280;63974;47.538;18.972;2024-02-26T07:45:03;99446.50;;;10.78;100.00
75401;BME280;63974;47.538;18.972;2024-02-26T07:48:06;99443.91;;;10.78;100.00
75401;BME280;63974;47.538;18.972;2024-02-26T07:51:12;99438.16;;;10.89;100.00
75401;BME280;63974;47.538;18.972;2024-02-26T07:54:18;99435.28;;;11.11;100.00
75401;BME280;63974;47.538;18.972;2024-02-26T07:57:24;99443.94;;;11.18;100.00
75401;BME280;63974;47.538;18.972;2024-02-26T08:00:27;99440.94;;;11.21;100.00
75401;BME280;63974;47.538;18.972;2024-02-26T08:03:30;99437.19;;;11.30;100.00
75401;BME280;63974;47.538;18.972;2024-02-26T08:06:33;99435.59;;;11.29;100.00
75401;BME280;63974;47.538;18.972;2024-02-26T08:09:39;99435.38;;;11.30;100.00
75401;BME280;63974;47.538;18.972;2024-02-26T08:12:42;99438.81;;;11.37;100.00
75401;BME280;63974;47.538;18.972;2024-02-26T08:15:45;99439.84;;;11.43;100.00
75401;BME280;63974;47.538;18.972;2024-02-26T08:18:47;99431.63;;;11.46;100.00
75401;BME280;63974;47.538;18.972;2024-02-26T08:21:50;99432.63;;;11.45;100.00
75401;BME280;63974;47.538;18.972;2024-02-26T08:24:53;99432.78;;;11.37;100.00
75401;BME280;63974;47.538;18.972;2024-02-26T08:27:56;99435.66;;;11.48;100.00
75401;BME280;63974;47.538;18.972;2024-02-26T08:30:58;99436.25;;;11.50;100.00
75401;BME280;63974;47.538;18.972;2024-02-26T08:34:01;99439.34;;;11.73;100.00
75401;BME280;63974;47.538;18.972;2024-02-26T08:37:05;99436.94;;;11.72;100.00
75401;BME280;63974;47.538;18.972;2024-02-26T08:40:08;99431.59;;;11.86;100.00
75401;BME280;63974;47.538;18.972;2024-02-26T08:43:13;99438.22;;;12.15;98.36
75401;BME280;63974;47.538;18.972;2024-02-26T08:46:16;99438.84;;;12.30;98.01
75401;BME280;63974;47.538;18.972;2024-02-26T08:49:19;99441.84;;;12.40;96.75
75401;BME280;63974;47.538;18.972;2024-02-26T08:52:25;99429.63;;;12.53;94.93
75401;BME280;63974;47.538;18.972;2024-02-26T08:55:31;99429.38;;;12.74;93.87
75401;BME280;63974;47.538;18.972;2024-02-26T08:58:34;99433.56;;;12.95;91.27
75401;BME280;63974;47.538;18.972;2024-02-26T09:01:38;99440.97;;;13.11;89.79
75401;BME280;63974;47.538;18.972;2024-02-26T09:04:41;99442.34;;;13.13;89.87
75401;BME280;63974;47.538;18.972;2024-02-26T09:07:44;99431.06;;;13.26;89.80
75401;BME280;63974;47.538;18.972;2024-02-26T09:10:46;99441.16;;;13.09;91.34
75401;BME280;63974;47.538;18.972;2024-02-26T09:13:49;99439.72;;;13.20;91.19
75401;BME280;63974;47.538;18.972;2024-02-26T09:16:52;99446.59;;;13.51;88.79
75401;BME280;63974;47.538;18.972;2024-02-26T09:19:55;99444.84;;;13.45;88.50
75401;BME280;63974;47.538;18.972;2024-02-26T09:22:58;99443.94;;;13.21;89.33
75401;BME280;63974;47.538;18.972;2024-02-26T09:26:01;99440.03;;;13.36;88.82
75401;BME280;63974;47.538;18.972;2024-02-26T09:29:04;99447.97;;;13.04;87.93
75401;BME280;63974;47.538;18.972;2024-02-26T09:32:06;99449.19;;;13.01;90.45
75401;BME280;63974;47.538;18.972;2024-02-26T09:35:09;99454.97;;;13.23;90.50
75401;BME280;63974;47.538;18.972;2024-02-26T09:38:12;99449.09;;;13.34;91.24
75401;BME280;63974;47.538;18.972;2024-02-26T09:41:15;99450.22;;;13.50;89.56
75401;BME280;63974;47.538;18.972;2024-02-26T09:44:19;99444.06;;;13.82;87.66
75401;BME280;63974;47.538;18.972;2024-02-26T09:47:26;99445.47;;;14.09;85.22
75401;BME280;63974;47.538;18.972;2024-02-26T09:50:29;99445.25;;;14.11;83.03
75401;BME280;63974;47.538;18.972;2024-02-26T09:53:32;99455.06;;;14.15;84.14
75401;BME280;63974;47.538;18.972;2024-02-26T09:56:39;99455.44;;;13.94;84.70
75401;BME280;63974;47.538;18.972;2024-02-26T09:59:59;99445.25;;;13.36;86.26
75401;BME280;63974;47.538;18.972;2024-02-26T10:03:12;99447.34;;;13.21;86.83
75401;BME280;63974;47.538;18.972;2024-02-26T10:06:17;99442.47;;;13.38;86.07
75401;BME280;63974;47.538;18.972;2024-02-26T10:09:21;99446.19;;;13.54;86.09
75401;BME280;63974;47.538;18.972;2024-02-26T10:12:26;99437.53;;;13.60;84.22
75401;BME280;63974;47.538;18.972;2024-02-26T10:15:30;99437.28;;;13.75;83.02
75401;BME280;63974;47.538;18.972;2024-02-26T10:18:49;99439.72;;;14.01;81.37
75401;BME280;63974;47.538;18.972;2024-02-26T10:22:01;99449.09;;;14.39;79.98
75401;BME280;63974;47.538;18.972;2024-02-26T10:25:06;99452.78;;;14.56;78.58
75401;BME280;63974;47.538;18.972;2024-02-26T10:28:10;99443.69;;;14.59;77.79
75401;BME280;63974;47.538;18.972;2024-02-26T10:31:16;99460.25;;;14.95;76.67
75401;BME280;63974;47.538;18.972;2024-02-26T10:34:19;99455.09;;;14.89;77.07
75401;BME280;63974;47.538;18.972;2024-02-26T10:37:23;99443.97;;;14.93;77.15
75401;BME280;63974;47.538;18.972;2024-02-26T10:40:31;99436.59;;;14.90;77.73
75401;BME280;63974;47.538;18.972;2024-02-26T10:43:33;99431.63;;;15.00;77.46
75401;BME280;63974;47.538;18.972;2024-02-26T10:46:37;99434.75;;;14.73;76.70
75401;BME280;63974;47.538;18.972;2024-02-26T10:49:45;99427.41;;;14.81;77.03
75401;BME280;63974;47.538;18.972;2024-02-26T10:52:49;99423.44;;;15.15;77.77
75401;BME280;63974;47.538;18.972;2024-02-26T10:55:57;99422.94;;;15.06;76.79
75401;BME280;63974;47.538;18.972;2024-02-26T10:59:01;99417.91;;;15.23;75.28
75401;BME280;63974;47.538;18.972;2024-02-26T11:02:05;99406.72;;;15.16;75.45
75401;BME280;63974;47.538;18.972;2024-02-26T11:05:11;99411.75;;;15.17;75.18
75401;BME280;63974;47.538;18.972;2024-02-26T11:08:14;99412.09;;;15.39;74.82
75401;BME280;63974;47.538;18.972;2024-02-26T11:11:20;99411.81;;;15.11;75.06
75401;BME280;63974;47.538;18.972;2024-02-26T11:14:24;99403.94;;;15.29;76.36
75401;BME280;63974;47.538;18.972;2024-02-26T11:17:29;99399.94;;;15.26;76.06
75401;BME280;63974;47.538;18.972;2024-02-26T11:20:38;99399.53;;;15.29;75.51
75401;BME280;63974;47.538;18.972;2024-02-26T11:23:42;99402.53;;;15.33;75.92
75401;BME280;63974;47.538;18.972;2024-02-26T11:26:48;99399.03;;;15.21;77.49
75401;BME280;63974;47.538;18.972;2024-02-26T11:29:54;99388.22;;;14.81;77.86
75401;BME280;63974;47.538;18.972;2024-02-26T11:32:58;99380.94;;;15.19;77.44
75401;BME280;63974;47.538;18.972;2024-02-26T11:36:02;99384.84;;;15.28;nan
75401;BME280;63974;47.538;18.972;2024-02-26T11:39:11;99389.41;;;15.51;74.86
75401;BME280;63974;47.538;18.972;2024-02-26T11:42:24;99379.22;;;15.72;73.98
75401;BME280;63974;47.538;18.972;2024-02-26T11:48:48;99376.13;;;15.64;74.64
75401;BME280;63974;47.538;18.972;2024-02-26T11:51:53;99372.13;;;15.61;73.50
75401;BME280;63974;47.538;18.972;2024-02-26T11:55:06;99371.00;;;15.57;73.16
75401;BME280;63974;47.538;18.972;2024-02-26T11:58:11;99361.09;;;15.59;72.97
75401;BME280;63974;47.538;18.972;2024-02-26T12:01:46;99366.28;;;15.77;73.12
75401;BME280;63974;47.538;18.972;2024-02-26T12:04:50;99366.19;;;15.95;71.40
75401;BME280;63974;47.538;18.972;2024-02-26T12:08:03;99364.59;;;15.82;71.35
75401;BME280;63974;47.538;18.972;2024-02-26T12:11:16;99360.63;;;16.03;70.99
75401;BME280;63974;47.538;18.972;2024-02-26T12:14:25;99352.31;;;15.94;69.64
75401;BME280;63974;47.538;18.972;2024-02-26T12:17:28;99354.94;;;15.94;69.59
75401;BME280;63974;47.538;18.972;2024-02-26T12:20:31;99351.31;;;16.18;69.01
75401;BME280;63974;47.538;18.972;2024-02-26T12:23:34;99359.50;;;16.10;70.14
75401;BME280;63974;47.538;18.972;2024-02-26T12:26:37;99356.06;;;16.10;69.41
75401;BME280;63974;47.538;18.972;2024-02-26T12:29:40;99347.31;;;16.04;69.86
75401;BME280;63974;47.538;18.972;2024-02-26T12:32:42;99348.22;;;16.10;68.95
75401;BME280;63974;47.538;18.972;2024-02-26T12:35:45;99344.34;;;16.12;69.82
75401;BME280;63974;47.538;18.972;2024-02-26T12:38:51;99351.16;;;15.90;69.67
75401;BME280;63974;47.538;18.972;2024-02-26T12:41:53;99342.44;;;16.19;68.36
75401;BME280;63974;47.538;18.972;2024-02-26T12:44:57;99341.53;;;16.14;68.16
75401;BME280;63974;47.538;18.972;2024-02-26T12:47:59;99349.72;;;16.06;67.87
75401;BME280;63974;47.538;18.972;2024-02-26T12:51:03;99335.94;;;16.10;66.82
75401;BME280;63974;47.538;18.972;2024-02-26T12:54:07;99340.97;;;16.12;66.48
75401;BME280;63974;47.538;18.972;2024-02-26T12:57:10;99332.84;;;16.13;66.51
75401;BME280;63974;47.538;18.972;2024-02-26T13:00:16;99342.06;;;16.04;66.77
75401;BME280;63974;47.538;18.972;2024-02-26T13:03:22;99332.66;;;16.15;66.83
75401;BME280;63974;47.538;18.972;2024-02-26T13:06:25;99334.69;;;16.24;66.66
75401;BME280;63974;47.538;18.972;2024-02-26T13:09:32;99333.06;;;16.35;66.74
75401;BME280;63974;47.538;18.972;2024-02-26T13:12:41;99341.63;;;16.19;67.10
75401;BME280;63974;47.538;18.972;2024-02-26T13:15:45;99336.53;;;16.24;66.57
75401;BME280;63974;47.538;18.972;2024-02-26T13:18:48;99333.78;;;16.30;66.16
75401;BME280;63974;47.538;18.972;2024-02-26T13:21:51;99329.34;;;16.19;65.74
75401;BME280;63974;47.538;18.972;2024-02-26T13:24:55;99328.66;;;16.24;66.78
75401;BME280;63974;47.538;18.972;2024-02-26T13:28:06;99331.38;;;16.17;67.31
75401;BME280;63974;47.538;18.972;2024-02-26T13:31:10;99324.44;;;16.11;66.58
75401;BME280;63974;47.538;18.972;2024-02-26T13:34:26;99328.75;;;16.17;65.52
75401;BME280;63974;47.538;18.972;2024-02-26T13:37:29;99319.66;;;16.08;64.86
75401;BME280;63974;47.538;18.972;2024-02-26T13:40:32;99319.53;;;16.03;65.76
75401;BME280;63974;47.538;18.972;2024-02-26T13:43:35;99318.63;;;16.09;65.32
75401;BME280;63974;47.538;18.972;2024-02-26T13:46:38;99324.75;;;16.03;65.01
75401;BME280;63974;47.538;18.972;2024-02-26T13:49:40;99317.13;;;15.90;64.20
75401;BME280;63974;47.538;18.972;2024-02-26T13:52:43;99331.28;;;16.01;64.84
75401;BME280;63974;47.538;18.972;2024-02-26T13:55:46;99327.16;;;16.05;65.57
75401;BME280;63974;47.538;18.972;2024-02-26T13:58:49;99329.56;;;16.06;65.70
75401;BME280;63974;47.538;18.972;2024-02-26T14:01:52;99334.34;;;16.09;65.19
75401;BME280;63974;47.538;18.972;2024-02-26T14:04:57;99334.81;;;16.18;65.29
75401;BME280;63974;47.538;18.972;2024-02-26T14:08:00;99335.94;;;16.22;64.45
75401;BME280;63974;47.538;18.972;2024-02-26T14:11:03;99333.00;;;16.18;65.35
75401;BME280;63974;47.538;18.972;2024-02-26T14:14:06;99338.66;;;16.04;66.27
75401;BME280;63974;47.538;18.972;2024-02-26T14:17:09;99337.06;;;16.03;65.80
75401;BME280;63974;47.538;18.972;2024-02-26T14:20:12;99338.31;;;16.00;66.36
75401;BME280;63974;47.538;18.972;2024-02-26T14:23:15;99338.53;;;15.87;66.89
75401;BME280;63974;47.538;18.972;2024-02-26T14:26:18;99344.13;;;15.91;67.07
75401;BME280;63974;47.538;18.972;2024-02-26T14:29:21;99338.41;;;15.82;66.21
75401;BME280;63974;47.538;18.972;2024-02-26T14:32:23;99348.69;;;15.95;65.73
75401;BME280;63974;47.538;18.972;2024-02-26T14:35:27;99348.91;;;16.05;66.00
75401;BME280;63974;47.538;18.972;2024-02-26T14:38:29;99347.09;;;16.06;65.65
75401;BME280;63974;47.538;18.972;2024-02-26T14:41:33;99349.00;;;15.99;65.80
75401;BME280;63974;47.538;18.972;2024-02-26T14:44:35;99346.06;;;15.95;65.30
75401;BME280;63974;47.538;18.972;2024-02-26T14:47:41;99339.50;;;15.75;66.29
75401;BME280;63974;47.538;18.972;2024-02-26T14:50:46;99342.00;;;15.59;67.86
75401;BME280;63974;47.538;18.972;2024-02-26T14:53:49;99347.31;;;15.52;69.31
75401;BME280;63974;47.538;18.972;2024-02-26T14:56:52;99347.75;;;15.49;69.58
75401;BME280;63974;47.538;18.972;2024-02-26T14:59:55;99353.53;;;15.40;70.81
75401;BME280;63974;47.538;18.972;2024-02-26T15:02:58;99351.63;;;15.29;71.29
75401;BME280;63974;47.538;18.972;2024-02-26T15:06:00;99352.16;;;15.19;71.71
75401;BME280;63974;47.538;18.972;2024-02-26T15:09:03;99356.50;;;15.25;71.86
75401;BME280;63974;47.538;18.972;2024-02-26T15:12:06;99350.00;;;15.16;72.15
75401;BME280;63974;47.538;18.972;2024-02-26T15:15:10;99355.06;;;15.11;73.35
75401;BME280;63974;47.538;18.972;2024-02-26T15:18:13;99360.66;;;15.15;72.52
75401;BME280;63974;47.538;18.972;2024-02-26T15:21:18;99372.03;;;15.09;72.28
75401;BME280;63974;47.538;18.972;2024-02-26T15:24:21;99368.19;;;14.93;73.22
75401;BME280;63974;47.538;18.972;2024-02-26T15:27:24;99371.22;;;14.90;73.28
75401;BME280;63974;47.538;18.972;2024-02-26T15:30:27;99365.72;;;14.80;73.54
75401;BME280;63974;47.538;18.972;2024-02-26T15:33:32;99365.78;;;14.74;73.52
75401;BME280;63974;47.538;18.972;2024-02-26T15:36:34;99372.31;;;14.65;73.67
75401;BME280;63974;47.538;18.972;2024-02-26T15:39:38;99367.59;;;14.55;74.19
75401;BME280;63974;47.538;18.972;2024-02-26T15:42:41;99373.91;;;14.48;74.03
75401;BME280;63974;47.538;18.972;2024-02-26T15:45:43;99377.56;;;14.40;74.46
75401;BME280;63974;47.538;18.972;2024-02-26T15:48:47;99379.44;;;14.33;73.68
75401;BME280;63974;47.538;18.972;2024-02-26T15:51:50;99376.66;;;14.28;74.00
75401;BME280;63974;47.538;18.972;2024-02-26T15:54:52;99383.53;;;14.23;74.47
75401;BME280;63974;47.538;18.972;2024-02-26T15:57:55;99386.59;;;14.13;74.58
75401;BME280;63974;47.538;18.972;2024-02-26T16:00:58;99386.28;;;14.03;75.13
75401;BME280;63974;47.538;18.972;2024-02-26T16:04:13;99379.56;;;13.89;75.80